Time;durP1;ratioP1;P1;durP2;ratioP2;P2;SDS_P1;SDS_P2;PMS_P1;PMS_P2;Temp;Humidity;BMP_temperature;BMP_pressure;BME280_temperature;BME280_humidity;BME280_pressure;Samples;Min_cycle;Max_cycle;Signal;HPM_P1;HPM_P2
2022/07/13 00:01:33;;;;;;;;;;;18.80;65.80;;;;;;4173030;28;20432;-87
2022/07/13 00:03:53;;;;;;;;;;;18.80;65.90;;;;;;4186636;28;19909;-87
2022/07/13 00:06:14;;;;;;;;;;;18.80;65.50;;;;;;4189858;28;19914;-87
2022/07/13 00:08:35;;;;;;;;;;;18.80;65.40;;;;;;4170234;28;19905;-87
2022/07/13 00:10:56;;;;;;;;;;;18.80;65.80;;;;;;4177766;28;19916;-85
2022/07/13 00:13:17;;;;;;;;;;;18.70;66.10;;;;;;4174886;28;19913;-85
2022/07/13 00:15:38;;;;;;;;;;;18.70;65.70;;;;;;4177496;28;19909;-85
2022/07/13 00:17:59;;;;;;;;;;;18.70;65.80;;;;;;4172643;28;19963;-90
2022/07/13 00:20:19;;;;;;;;;;;18.70;65.50;;;;;;4173723;28;20327;-87
2022/07/13 00:22:40;;;;;;;;;;;18.70;65.80;;;;;;4170585;28;19913;-86
2022/07/13 00:25:01;;;;;;;;;;;18.70;65.80;;;;;;4190249;28;19912;-89
2022/07/13 00:27:22;;;;;;;;;;;18.70;66.40;;;;;;4181309;28;19908;-86
2022/07/13 00:29:43;;;;;;;;;;;18.70;66.30;;;;;;4176854;28;19924;-88
2022/07/13 00:32:04;;;;;;;;;;;18.70;67.10;;;;;;4179336;28;19912;-86
2022/07/13 00:34:25;;;;;;;;;;;18.70;66.40;;;;;;4188940;28;19934;-86
2022/07/13 00:36:45;;;;;;;;;;;18.60;66.90;;;;;;4177350;28;19963;-87
2022/07/13 00:39:06;;;;;;;;;;;18.60;66.70;;;;;;4171632;28;20037;-87
2022/07/13 00:41:31;;;;;;;;;;;18.60;66.60;;;;;;4180234;28;19909;-87
2022/07/13 00:43:52;;;;;;;;;;;18.60;67.00;;;;;;4192588;28;20368;-85
2022/07/13 00:46:14;;;;;;;;;;;18.60;66.90;;;;;;4182000;28;20348;-87
2022/07/13 00:48:36;;;;;;;;;;;18.60;67.00;;;;;;4189395;28;19905;-88
2022/07/13 00:50:57;;;;;;;;;;;18.60;66.80;;;;;;4188877;28;19916;-88
2022/07/13 00:53:18;;;;;;;;;;;18.60;67.30;;;;;;4190395;28;19905;-87
2022/07/13 00:55:39;;;;;;;;;;;18.60;66.70;;;;;;4189926;28;19908;-86
2022/07/13 00:58:00;;;;;;;;;;;18.60;67.10;;;;;;4178931;28;19911;-87
2022/07/13 01:00:21;;;;;;;;;;;18.60;67.10;;;;;;4175862;28;19913;-87
2022/07/13 01:02:43;;;;;;;;;;;18.60;66.40;;;;;;4184890;28;19968;-87
2022/07/13 01:05:04;;;;;;;;;;;18.60;66.50;;;;;;4177108;28;19909;-88
2022/07/13 01:07:25;;;;;;;;;;;18.60;67.20;;;;;;4186856;28;19997;-86
2022/07/13 01:09:46;;;;;;;;;;;18.60;67.50;;;;;;4169408;28;19916;-87
2022/07/13 01:12:07;;;;;;;;;;;18.60;67.40;;;;;;4175185;28;19913;-87
2022/07/13 01:14:29;;;;;;;;;;;18.60;67.10;;;;;;4186201;28;20290;-89
2022/07/13 01:16:50;;;;;;;;;;;18.60;67.10;;;;;;4185999;28;19909;-89
2022/07/13 01:19:12;;;;;;;;;;;18.60;67.40;;;;;;4175977;28;19916;-86
2022/07/13 01:21:35;;;;;;;;;;;18.60;66.70;;;;;;4195722;28;19912;-87
2022/07/13 01:23:56;;;;;;;;;;;18.60;67.00;;;;;;4174007;28;19924;-86
2022/07/13 01:26:17;;;;;;;;;;;18.60;66.30;;;;;;4186008;28;20459;-86
2022/07/13 01:28:37;;;;;;;;;;;18.60;66.30;;;;;;4184435;28;19920;-87
2022/07/13 01:30:58;;;;;;;;;;;18.60;66.80;;;;;;4181147;28;19908;-87
2022/07/13 01:33:19;;;;;;;;;;;18.60;67.30;;;;;;4191456;28;20458;-88
2022/07/13 01:35:40;;;;;;;;;;;18.60;67.40;;;;;;4184815;28;19932;-87
2022/07/13 01:38:01;;;;;;;;;;;18.60;66.90;;;;;;4177253;28;19916;-85
2022/07/13 01:40:22;;;;;;;;;;;18.60;67.60;;;;;;4171110;28;19948;-87
2022/07/13 01:42:44;;;;;;;;;;;18.60;67.30;;;;;;4186049;28;19966;-87
2022/07/13 01:45:07;;;;;;;;;;;18.60;67.00;;;;;;4185774;28;20417;-86
2022/07/13 01:47:27;;;;;;;;;;;18.60;68.10;;;;;;4186135;28;19908;-86
2022/07/13 01:49:48;;;;;;;;;;;18.60;67.20;;;;;;4178314;28;19915;-89
2022/07/13 01:52:09;;;;;;;;;;;18.60;67.30;;;;;;4175526;28;19916;-88
2022/07/13 01:54:30;;;;;;;;;;;18.60;67.20;;;;;;4180853;28;19905;-85
2022/07/13 01:56:51;;;;;;;;;;;18.60;66.90;;;;;;4173061;28;19946;-88
2022/07/13 01:59:12;;;;;;;;;;;18.60;66.80;;;;;;4179699;28;19935;-85
2022/07/13 02:01:33;;;;;;;;;;;18.60;66.80;;;;;;4178737;28;19909;-86
2022/07/13 02:03:53;;;;;;;;;;;18.60;67.00;;;;;;4180595;28;19905;-87
2022/07/13 02:06:14;;;;;;;;;;;18.60;66.70;;;;;;4181910;28;19908;-86
2022/07/13 02:08:35;;;;;;;;;;;18.60;66.90;;;;;;4185113;28;19924;-88
2022/07/13 02:10:57;;;;;;;;;;;18.60;66.80;;;;;;4183635;28;20379;-86
2022/07/13 02:13:19;;;;;;;;;;;18.60;67.20;;;;;;4188815;28;20363;-88
2022/07/13 02:15:40;;;;;;;;;;;18.60;67.00;;;;;;4185439;28;19912;-89
2022/07/13 02:18:01;;;;;;;;;;;18.60;67.20;;;;;;4204547;28;19919;-86
2022/07/13 02:20:22;;;;;;;;;;;18.60;68.20;;;;;;4211076;28;19950;-87
2022/07/13 02:22:43;;;;;;;;;;;18.60;67.40;;;;;;4182086;28;19924;-86
2022/07/13 02:25:04;;;;;;;;;;;18.60;67.10;;;;;;4180824;28;19911;-86
2022/07/13 02:27:27;;;;;;;;;;;18.60;67.80;;;;;;4176774;28;20363;-86
2022/07/13 02:29:48;;;;;;;;;;;18.60;67.80;;;;;;4187584;28;19970;-85
2022/07/13 02:32:12;;;;;;;;;;;18.60;67.80;;;;;;4176435;28;19963;-87
2022/07/13 02:34:33;;;;;;;;;;;18.60;68.10;;;;;;4176880;28;19955;-88
2022/07/13 02:36:55;;;;;;;;;;;18.60;68.00;;;;;;4187221;28;20352;-85
2022/07/13 02:39:15;;;;;;;;;;;18.60;68.50;;;;;;4185898;28;19970;-86
2022/07/13 02:41:36;;;;;;;;;;;18.60;68.20;;;;;;4185847;28;20799;-87
2022/07/13 02:43:58;;;;;;;;;;;18.50;68.50;;;;;;4184381;28;20397;-85
2022/07/13 02:46:19;;;;;;;;;;;18.50;68.00;;;;;;4172448;28;19911;-85
2022/07/13 02:48:40;;;;;;;;;;;18.50;68.50;;;;;;4189360;28;19904;-87
2022/07/13 02:51:01;;;;;;;;;;;18.50;68.30;;;;;;4187406;28;20366;-87
2022/07/13 02:53:22;;;;;;;;;;;18.50;69.50;;;;;;4184517;28;19984;-87
2022/07/13 02:55:43;;;;;;;;;;;18.50;69.80;;;;;;4189237;28;19909;-86
2022/07/13 02:58:04;;;;;;;;;;;18.50;69.40;;;;;;4181360;28;19991;-87
2022/07/13 03:00:25;;;;;;;;;;;18.50;69.70;;;;;;4187145;28;19955;-88
2022/07/13 03:02:45;;;;;;;;;;;18.50;70.00;;;;;;4182657;28;19920;-85
2022/07/13 03:05:08;;;;;;;;;;;18.50;69.60;;;;;;4189387;28;20016;-85
2022/07/13 03:07:28;;;;;;;;;;;18.50;69.80;;;;;;4178068;28;19913;-86
2022/07/13 03:09:49;;;;;;;;;;;18.50;69.60;;;;;;4173842;28;19909;-86
2022/07/13 03:12:11;;;;;;;;;;;18.50;69.00;;;;;;4184236;28;20367;-85
2022/07/13 03:14:32;;;;;;;;;;;18.50;70.10;;;;;;4171990;28;20018;-86
2022/07/13 03:16:53;;;;;;;;;;;18.50;70.10;;;;;;4176531;28;20095;-85
2022/07/13 03:19:14;;;;;;;;;;;18.50;69.90;;;;;;4176422;28;20160;-87
2022/07/13 03:21:35;;;;;;;;;;;18.50;70.50;;;;;;4187471;28;20010;-86
2022/07/13 03:23:56;;;;;;;;;;;18.60;70.50;;;;;;4173036;28;20465;-90
2022/07/13 03:26:17;;;;;;;;;;;18.60;70.70;;;;;;4177243;28;19920;-84
2022/07/13 03:28:38;;;;;;;;;;;18.60;70.70;;;;;;4175796;28;19920;-85
2022/07/13 03:30:58;;;;;;;;;;;18.60;69.90;;;;;;4174718;28;19916;-87
2022/07/13 03:33:19;;;;;;;;;;;18.60;70.90;;;;;;4181966;28;19908;-87
2022/07/13 03:35:40;;;;;;;;;;;18.60;70.50;;;;;;4192956;28;19912;-86
2022/07/13 03:38:01;;;;;;;;;;;18.60;70.60;;;;;;4188373;28;19919;-88
2022/07/13 03:40:22;;;;;;;;;;;18.60;71.00;;;;;;4172907;28;19909;-87
2022/07/13 03:42:42;;;;;;;;;;;18.60;70.90;;;;;;4190515;28;19919;-84
2022/07/13 03:45:04;;;;;;;;;;;18.70;70.80;;;;;;4190197;28;19908;-87
2022/07/13 03:47:25;;;;;;;;;;;18.60;70.70;;;;;;4178393;28;19909;-86
2022/07/13 03:49:46;;;;;;;;;;;18.60;70.60;;;;;;4183203;28;21436;-87
2022/07/13 03:52:06;;;;;;;;;;;18.70;70.60;;;;;;4170126;28;20323;-86
2022/07/13 03:54:27;;;;;;;;;;;18.70;70.80;;;;;;4185652;28;19904;-85
2022/07/13 03:56:48;;;;;;;;;;;18.70;70.40;;;;;;4191649;28;19962;-86
2022/07/13 03:59:09;;;;;;;;;;;18.70;70.70;;;;;;4185278;28;20363;-86
2022/07/13 04:01:30;;;;;;;;;;;18.70;71.00;;;;;;4184504;28;20337;-87
2022/07/13 04:03:52;;;;;;;;;;;18.70;71.20;;;;;;4188742;28;20335;-87
2022/07/13 04:06:13;;;;;;;;;;;18.70;71.20;;;;;;4177745;28;19915;-85
2022/07/13 04:08:34;;;;;;;;;;;18.70;70.90;;;;;;4167320;28;19905;-85
2022/07/13 04:10:54;;;;;;;;;;;18.70;72.10;;;;;;4187018;28;19916;-86
2022/07/13 04:13:15;;;;;;;;;;;18.70;71.00;;;;;;4192341;28;19956;-88
2022/07/13 04:15:36;;;;;;;;;;;18.70;70.80;;;;;;4170624;28;19988;-85
2022/07/13 04:17:57;;;;;;;;;;;18.70;70.80;;;;;;4189594;28;20590;-90
2022/07/13 04:20:18;;;;;;;;;;;18.80;70.50;;;;;;4186340;28;19995;-87
2022/07/13 04:22:39;;;;;;;;;;;18.70;70.70;;;;;;4184300;28;20324;-86
2022/07/13 04:25:00;;;;;;;;;;;18.80;70.70;;;;;;4188687;28;19908;-87
2022/07/13 04:27:20;;;;;;;;;;;18.80;70.50;;;;;;4189334;28;19908;-87
2022/07/13 04:29:41;;;;;;;;;;;18.80;70.30;;;;;;4188270;28;20017;-86
2022/07/13 04:32:02;;;;;;;;;;;18.80;70.40;;;;;;4190126;28;20347;-87
2022/07/13 04:34:23;;;;;;;;;;;18.90;70.60;;;;;;4182087;28;19909;-86
2022/07/13 04:36:44;;;;;;;;;;;18.90;70.50;;;;;;4183567;28;19905;-87
2022/07/13 04:39:05;;;;;;;;;;;18.90;70.50;;;;;;4186216;28;19908;-86
2022/07/13 04:41:25;;;;;;;;;;;18.90;70.60;;;;;;4194316;28;19908;-85
2022/07/13 04:43:46;;;;;;;;;;;18.90;70.30;;;;;;4178841;28;19916;-89
2022/07/13 04:46:07;;;;;;;;;;;19.00;70.70;;;;;;4190656;28;19915;-87
2022/07/13 04:48:28;;;;;;;;;;;19.00;70.70;;;;;;4190835;28;19910;-86
2022/07/13 04:50:52;;;;;;;;;;;19.00;71.00;;;;;;4193133;28;20282;-89
2022/07/13 04:53:13;;;;;;;;;;;18.90;70.80;;;;;;4177620;28;19912;-87
2022/07/13 04:55:36;;;;;;;;;;;19.00;70.80;;;;;;4188619;28;20362;-88
2022/07/13 04:57:58;;;;;;;;;;;19.00;70.80;;;;;;4181622;28;20354;-88
2022/07/13 05:00:18;;;;;;;;;;;19.00;70.50;;;;;;4190674;28;19905;-87
2022/07/13 05:02:39;;;;;;;;;;;19.00;70.50;;;;;;4188097;28;19905;-87
2022/07/13 05:05:00;;;;;;;;;;;19.10;70.40;;;;;;4177837;28;20394;-87
2022/07/13 05:07:21;;;;;;;;;;;19.10;70.40;;;;;;4183498;28;19999;-87
2022/07/13 05:09:42;;;;;;;;;;;19.10;70.40;;;;;;4196732;28;19974;-89
2022/07/13 05:12:03;;;;;;;;;;;19.10;70.50;;;;;;4190269;28;20373;-85
2022/07/13 05:14:24;;;;;;;;;;;19.10;70.40;;;;;;4193000;28;19908;-87
2022/07/13 05:16:44;;;;;;;;;;;19.10;70.40;;;;;;4187350;28;20158;-89
2022/07/13 05:19:06;;;;;;;;;;;19.20;70.50;;;;;;4177859;28;19909;-86
2022/07/13 05:21:28;;;;;;;;;;;19.20;70.50;;;;;;4187224;28;20027;-87
2022/07/13 05:23:48;;;;;;;;;;;19.20;69.80;;;;;;4190270;28;19977;-84
2022/07/13 05:26:09;;;;;;;;;;;19.20;70.10;;;;;;4184219;28;20444;-86
2022/07/13 05:28:31;;;;;;;;;;;19.20;69.80;;;;;;4175923;28;19914;-87
2022/07/13 05:30:52;;;;;;;;;;;19.20;70.30;;;;;;4186925;28;19912;-87
2022/07/13 05:33:14;;;;;;;;;;;19.20;69.90;;;;;;4193520;28;19939;-86
2022/07/13 05:35:35;;;;;;;;;;;19.20;70.10;;;;;;4192469;28;19904;-88
2022/07/13 05:37:56;;;;;;;;;;;19.20;70.20;;;;;;4191793;28;19916;-87
2022/07/13 05:40:17;;;;;;;;;;;19.20;70.10;;;;;;4186099;28;19923;-86
2022/07/13 05:42:38;;;;;;;;;;;19.20;70.30;;;;;;4175670;28;19913;-89
2022/07/13 05:44:59;;;;;;;;;;;19.20;70.30;;;;;;4183640;28;19909;-88
2022/07/13 05:47:20;;;;;;;;;;;19.20;70.00;;;;;;4192313;28;20043;-87
2022/07/13 05:49:41;;;;;;;;;;;19.20;70.00;;;;;;4186153;28;19912;-86
2022/07/13 05:52:02;;;;;;;;;;;19.20;70.50;;;;;;4191444;28;19922;-87
2022/07/13 05:54:23;;;;;;;;;;;19.20;70.40;;;;;;4175396;28;19962;-87
2022/07/13 05:56:43;;;;;;;;;;;19.20;70.50;;;;;;4186474;28;19923;-87
2022/07/13 05:59:04;;;;;;;;;;;19.20;70.80;;;;;;4181983;28;19905;-87
2022/07/13 06:01:25;;;;;;;;;;;19.20;70.70;;;;;;4173008;28;19905;-87
2022/07/13 06:03:46;;;;;;;;;;;19.20;71.00;;;;;;4174401;28;20390;-88
2022/07/13 06:06:07;;;;;;;;;;;19.20;70.80;;;;;;4178133;28;19968;-87
2022/07/13 06:08:28;;;;;;;;;;;19.20;70.90;;;;;;4178638;28;19916;-86
2022/07/13 06:10:50;;;;;;;;;;;19.30;71.00;;;;;;4193427;28;19908;-85
2022/07/13 06:13:10;;;;;;;;;;;19.20;71.10;;;;;;4174573;28;19912;-87
2022/07/13 06:15:31;;;;;;;;;;;19.20;71.00;;;;;;4180327;28;19951;-87
2022/07/13 06:17:52;;;;;;;;;;;19.30;70.70;;;;;;4179462;28;19939;-88
2022/07/13 06:20:13;;;;;;;;;;;19.30;71.00;;;;;;4189521;28;19962;-86
2022/07/13 06:22:36;;;;;;;;;;;19.30;71.10;;;;;;4192448;28;19963;-89
2022/07/13 06:24:57;;;;;;;;;;;19.30;71.10;;;;;;4188246;28;19908;-87
2022/07/13 06:27:18;;;;;;;;;;;19.30;71.00;;;;;;4193923;28;19908;-87
2022/07/13 06:29:38;;;;;;;;;;;19.30;70.70;;;;;;4184529;28;19920;-90
2022/07/13 06:31:59;;;;;;;;;;;19.30;70.60;;;;;;4189986;28;19948;-90
2022/07/13 06:34:20;;;;;;;;;;;19.30;71.00;;;;;;4188791;28;19977;-90
2022/07/13 06:36:41;;;;;;;;;;;19.30;70.80;;;;;;4179479;28;19913;-86
2022/07/13 06:39:02;;;;;;;;;;;19.30;70.60;;;;;;4187739;28;19914;-86
2022/07/13 06:41:23;;;;;;;;;;;19.30;71.40;;;;;;4188398;28;19987;-85
2022/07/13 06:43:44;;;;;;;;;;;19.30;70.60;;;;;;4189240;28;19908;-89
2022/07/13 06:46:05;;;;;;;;;;;19.30;70.10;;;;;;4186815;28;19909;-86
2022/07/13 06:48:26;;;;;;;;;;;19.30;69.70;;;;;;4188647;28;19948;-86
2022/07/13 06:50:47;;;;;;;;;;;19.30;69.60;;;;;;4191709;28;19991;-87
2022/07/13 06:53:08;;;;;;;;;;;19.40;69.80;;;;;;4186445;28;19922;-85
2022/07/13 06:55:29;;;;;;;;;;;19.40;69.50;;;;;;4171595;28;19916;-87
2022/07/13 06:57:51;;;;;;;;;;;19.40;69.80;;;;;;4189872;28;20130;-85
2022/07/13 07:00:13;;;;;;;;;;;19.40;69.90;;;;;;4182245;28;20465;-87
2022/07/13 07:02:36;;;;;;;;;;;19.40;69.40;;;;;;4181535;28;20354;-87
2022/07/13 07:04:56;;;;;;;;;;;19.40;69.20;;;;;;4171796;28;19909;-87
2022/07/13 07:07:17;;;;;;;;;;;19.50;69.20;;;;;;4175035;28;19915;-86
2022/07/13 07:09:38;;;;;;;;;;;19.50;69.80;;;;;;4186313;28;19912;-87
2022/07/13 07:11:59;;;;;;;;;;;19.50;69.80;;;;;;4201194;28;19916;-89
2022/07/13 07:14:20;;;;;;;;;;;19.50;69.90;;;;;;4178065;28;20375;-87
2022/07/13 07:16:42;;;;;;;;;;;19.50;69.30;;;;;;4187108;28;19947;-85
2022/07/13 07:19:03;;;;;;;;;;;19.60;69.00;;;;;;4174402;28;19912;-89
2022/07/13 07:21:24;;;;;;;;;;;19.60;69.20;;;;;;4181657;28;19963;-90
2022/07/13 07:23:47;;;;;;;;;;;19.60;69.20;;;;;;4171798;28;20370;-88
2022/07/13 07:26:07;;;;;;;;;;;19.60;69.30;;;;;;4193221;28;19904;-89
2022/07/13 07:28:28;;;;;;;;;;;19.60;69.40;;;;;;4181471;28;20283;-88
2022/07/13 07:30:49;;;;;;;;;;;19.60;69.40;;;;;;4177085;28;19905;-87
2022/07/13 07:33:10;;;;;;;;;;;19.60;69.20;;;;;;4171865;28;19913;-88
2022/07/13 07:35:32;;;;;;;;;;;19.60;68.90;;;;;;4183708;28;20180;-88
2022/07/13 07:37:52;;;;;;;;;;;19.60;68.70;;;;;;4186995;28;19915;-87
2022/07/13 07:40:13;;;;;;;;;;;19.60;68.90;;;;;;4184477;28;19909;-88
2022/07/13 07:42:35;;;;;;;;;;;19.60;69.10;;;;;;4173932;28;19963;-88
2022/07/13 07:44:56;;;;;;;;;;;19.70;69.70;;;;;;4171030;28;20302;-87
2022/07/13 07:47:17;;;;;;;;;;;19.70;69.80;;;;;;4174918;28;20360;-86
2022/07/13 07:49:38;;;;;;;;;;;19.80;69.50;;;;;;4171974;28;19956;-87
2022/07/13 07:51:59;;;;;;;;;;;19.80;69.70;;;;;;4182761;28;19955;-88
2022/07/13 07:54:19;;;;;;;;;;;19.90;69.40;;;;;;4173351;28;19955;-85
2022/07/13 07:56:41;;;;;;;;;;;20.00;69.20;;;;;;4183431;28;20350;-87
2022/07/13 07:59:02;;;;;;;;;;;20.10;69.20;;;;;;4183279;28;19912;-87
2022/07/13 08:01:23;;;;;;;;;;;20.10;69.10;;;;;;4190165;28;19917;-88
2022/07/13 08:03:44;;;;;;;;;;;20.20;69.10;;;;;;4184439;28;19992;-86
2022/07/13 08:06:05;;;;;;;;;;;20.30;69.20;;;;;;4189362;28;19911;-87
2022/07/13 08:08:26;;;;;;;;;;;20.40;69.60;;;;;;4183062;28;20008;-88
2022/07/13 08:10:47;;;;;;;;;;;20.50;68.50;;;;;;4192500;28;19908;-86
2022/07/13 08:13:07;;;;;;;;;;;20.60;69.10;;;;;;4191863;28;19955;-87
2022/07/13 08:15:29;;;;;;;;;;;20.80;69.10;;;;;;4195871;28;20362;-88
2022/07/13 08:17:50;;;;;;;;;;;20.90;68.80;;;;;;4184934;28;19912;-87
2022/07/13 08:20:11;;;;;;;;;;;21.00;68.40;;;;;;4192047;28;20046;-88
2022/07/13 08:22:32;;;;;;;;;;;21.20;68.10;;;;;;4190765;28;19908;-90
2022/07/13 08:24:53;;;;;;;;;;;21.30;67.80;;;;;;4174719;28;19904;-88
2022/07/13 08:27:14;;;;;;;;;;;21.50;67.00;;;;;;4173649;28;20460;-85
2022/07/13 08:29:35;;;;;;;;;;;21.60;66.50;;;;;;4185616;28;20382;-85
2022/07/13 08:31:56;;;;;;;;;;;21.70;65.40;;;;;;4173663;28;20050;-85
2022/07/13 08:39:35;;;;;;;;;;;22.20;64.60;;;;;;4196452;28;19912;-87
2022/07/13 08:41:59;;;;;;;;;;;22.30;62.30;;;;;;4196157;28;19920;-86
2022/07/13 08:44:19;;;;;;;;;;;22.50;62.50;;;;;;4190859;28;19912;-87
2022/07/13 08:46:41;;;;;;;;;;;22.60;62.10;;;;;;4187380;28;19948;-86
2022/07/13 08:49:02;;;;;;;;;;;22.70;62.10;;;;;;4181879;28;19935;-88
2022/07/13 08:51:24;;;;;;;;;;;22.90;61.90;;;;;;4177189;28;19923;-88
2022/07/13 08:53:44;;;;;;;;;;;23.00;62.40;;;;;;4174975;28;19961;-87
2022/07/13 08:56:06;;;;;;;;;;;23.10;61.80;;;;;;4179513;28;19948;-87
2022/07/13 08:58:27;;;;;;;;;;;23.20;61.90;;;;;;4191488;28;19962;-86
2022/07/13 09:00:48;;;;;;;;;;;23.30;60.30;;;;;;4189561;28;19916;-87
2022/07/13 09:03:09;;;;;;;;;;;23.40;59.80;;;;;;4180816;28;20042;-87
2022/07/13 09:05:31;;;;;;;;;;;23.50;59.50;;;;;;4193736;28;19958;-89
2022/07/13 09:08:02;;;;;;;;;;;23.60;59.70;;;;;;4193102;28;20447;-88
2022/07/13 09:10:23;;;;;;;;;;;23.60;59.80;;;;;;4182730;28;19920;-86
2022/07/13 09:12:44;;;;;;;;;;;23.70;59.00;;;;;;4173664;28;19962;-86
2022/07/13 09:15:06;;;;;;;;;;;23.80;58.00;;;;;;4185692;28;19912;-88
2022/07/13 09:17:43;;;;;;;;;;;23.90;56.80;;;;;;4197208;28;19908;-88
2022/07/13 09:20:10;;;;;;;;;;;23.90;57.00;;;;;;4183892;28;19911;-85
2022/07/13 09:22:31;;;;;;;;;;;24.00;57.50;;;;;;4176436;28;20469;-90
2022/07/13 09:24:53;;;;;;;;;;;24.00;57.00;;;;;;4190793;28;19915;-88
2022/07/13 09:27:15;;;;;;;;;;;24.10;56.30;;;;;;4182497;28;20304;-88
2022/07/13 09:29:39;;;;;;;;;;;24.10;56.00;;;;;;4188912;28;20390;-86
2022/07/13 09:32:04;;;;;;;;;;;24.20;56.70;;;;;;4183359;28;19912;-89
2022/07/13 09:34:43;;;;;;;;;;;24.30;56.20;;;;;;4186406;28;19908;-87
2022/07/13 09:37:11;;;;;;;;;;;24.30;56.00;;;;;;4181312;28;19914;-89
2022/07/13 09:39:32;;;;;;;;;;;24.40;55.60;;;;;;4184225;28;19905;-87
2022/07/13 09:41:53;;;;;;;;;;;24.40;56.00;;;;;;4185657;28;19946;-87
2022/07/13 09:46:58;;;;;;;;;;;24.50;55.40;;;;;;4193133;28;19908;-89
2022/07/13 09:49:28;;;;;;;;;;;24.50;55.80;;;;;;4179935;28;19987;-90
2022/07/13 09:51:54;;;;;;;;;;;24.60;56.10;;;;;;4177368;28;19920;-87
2022/07/13 09:54:15;;;;;;;;;;;24.60;55.50;;;;;;4189687;28;19916;-86
2022/07/13 09:56:38;;;;;;;;;;;24.70;55.00;;;;;;4184083;28;19908;-86
2022/07/13 09:59:03;;;;;;;;;;;24.70;54.40;;;;;;4192953;28;19955;-86
2022/07/13 10:01:24;;;;;;;;;;;24.70;54.60;;;;;;4184086;28;19916;-87
2022/07/13 10:03:46;;;;;;;;;;;24.80;55.10;;;;;;4169596;28;19955;-87
2022/07/13 10:06:07;;;;;;;;;;;24.80;55.30;;;;;;4180133;28;19908;-88
2022/07/13 10:08:27;;;;;;;;;;;24.90;55.00;;;;;;4193717;28;20436;-88
2022/07/13 10:10:49;;;;;;;;;;;24.90;53.90;;;;;;4193694;28;19919;-89
2022/07/13 10:13:11;;;;;;;;;;;24.90;54.00;;;;;;4170327;28;20378;-86
2022/07/13 10:15:32;;;;;;;;;;;25.00;54.40;;;;;;4188709;28;20003;-88
2022/07/13 10:17:53;;;;;;;;;;;25.00;54.10;;;;;;4176953;28;20406;-89
2022/07/13 10:20:16;;;;;;;;;;;25.00;53.80;;;;;;4177486;28;19968;-89
2022/07/13 10:22:38;;;;;;;;;;;25.00;53.50;;;;;;4180662;28;19908;-86
2022/07/13 10:25:00;;;;;;;;;;;25.00;54.30;;;;;;4176282;28;20708;-88
2022/07/13 10:27:26;;;;;;;;;;;25.00;54.40;;;;;;4171915;28;20314;-87
2022/07/13 10:29:47;;;;;;;;;;;25.00;54.40;;;;;;4178027;28;19924;-85
2022/07/13 10:32:08;;;;;;;;;;;25.10;54.10;;;;;;4191179;28;19912;-88
2022/07/13 10:34:48;;;;;;;;;;;25.20;53.80;;;;;;4180438;28;19915;-89
2022/07/13 10:37:10;;;;;;;;;;;25.10;53.40;;;;;;4172883;28;19908;-88
2022/07/13 10:39:31;;;;;;;;;;;25.20;53.30;;;;;;4175397;28;19908;-88
2022/07/13 10:41:55;;;;;;;;;;;25.20;53.20;;;;;;4200991;28;19987;-88
2022/07/13 10:44:38;;;;;;;;;;;25.20;53.10;;;;;;4200677;28;19908;-88
2022/07/13 10:46:59;;;;;;;;;;;25.30;52.90;;;;;;4175383;28;20268;-87
2022/07/13 10:49:32;;;;;;;;;;;25.30;53.10;;;;;;4189855;28;19909;-87
2022/07/13 10:51:53;;;;;;;;;;;25.30;52.40;;;;;;4175350;28;19912;-87
2022/07/13 10:54:15;;;;;;;;;;;25.40;51.60;;;;;;4189526;28;19919;-86
2022/07/13 10:56:39;;;;;;;;;;;25.40;51.30;;;;;;4187428;28;19913;-88
2022/07/13 10:59:02;;;;;;;;;;;25.40;51.50;;;;;;4193063;28;20328;-87
2022/07/13 11:01:37;;;;;;;;;;;25.50;51.00;;;;;;4176678;28;20449;-87
2022/07/13 11:03:58;;;;;;;;;;;25.40;49.60;;;;;;4184205;28;19940;-85
2022/07/13 11:06:26;;;;;;;;;;;25.40;46.30;;;;;;4188916;28;19954;-87
2022/07/13 11:09:06;;;;;;;;;;;25.40;46.00;;;;;;4172667;28;19984;-85
2022/07/13 11:11:30;;;;;;;;;;;25.40;45.70;;;;;;4193075;28;19916;-86
2022/07/13 11:13:51;;;;;;;;;;;25.40;46.60;;;;;;4193629;28;19971;-85
2022/07/13 11:16:13;;;;;;;;;;;25.40;45.90;;;;;;4181496;28;19908;-89
2022/07/13 11:18:35;;;;;;;;;;;25.30;46.30;;;;;;4186118;28;19936;-85
2022/07/13 11:21:14;;;;;;;;;;;25.30;46.50;;;;;;4189259;28;19919;-88
2022/07/13 11:26:39;;;;;;;;;;;25.40;47.00;;;;;;4187163;28;20063;-87
2022/07/13 11:29:03;;;;;;;;;;;25.50;46.70;;;;;;4178465;28;19920;-88
2022/07/13 11:31:26;;;;;;;;;;;25.50;47.00;;;;;;4193121;28;20355;-88
2022/07/13 11:33:48;;;;;;;;;;;25.50;47.10;;;;;;4185228;28;19913;-86
2022/07/13 11:36:09;;;;;;;;;;;25.50;46.90;;;;;;4181245;28;20023;-86
2022/07/13 11:38:36;;;;;;;;;;;25.50;46.20;;;;;;4185667;28;20006;-88
2022/07/13 11:41:00;;;;;;;;;;;25.50;44.90;;;;;;4190052;28;19915;-87
2022/07/13 11:43:21;;;;;;;;;;;25.50;44.60;;;;;;4189422;28;19948;-86
2022/07/13 11:45:54;;;;;;;;;;;25.50;45.00;;;;;;4188473;28;19915;-87
2022/07/13 11:48:15;;;;;;;;;;;25.50;45.10;;;;;;4192178;28;19909;-88
2022/07/13 11:50:42;;;;;;;;;;;25.40;46.40;;;;;;4173971;28;19939;-86
2022/07/13 11:53:03;;;;;;;;;;;25.40;47.00;;;;;;4186604;28;19951;-86
2022/07/13 11:55:24;;;;;;;;;;;25.40;46.90;;;;;;4188897;28;19930;-85
2022/07/13 11:57:47;;;;;;;;;;;25.40;45.80;;;;;;4189808;28;19908;-88
2022/07/13 12:00:09;;;;;;;;;;;25.40;46.30;;;;;;4176644;28;19905;-86
2022/07/13 12:02:30;;;;;;;;;;;25.30;46.20;;;;;;4192410;28;19908;-88
2022/07/13 12:04:51;;;;;;;;;;;25.30;46.20;;;;;;4187136;28;19913;-87
2022/07/13 12:07:12;;;;;;;;;;;25.20;45.70;;;;;;4173065;28;19948;-86
2022/07/13 12:09:33;;;;;;;;;;;25.10;44.50;;;;;;4173584;28;19928;-86
2022/07/13 12:11:54;;;;;;;;;;;25.10;44.60;;;;;;4186363;28;19991;-87
2022/07/13 12:14:15;;;;;;;;;;;25.00;44.80;;;;;;4170864;28;19936;-87
2022/07/13 12:16:36;;;;;;;;;;;25.00;45.40;;;;;;4169924;28;19951;-87
2022/07/13 12:18:58;;;;;;;;;;;24.90;45.70;;;;;;4171351;28;19992;-85
2022/07/13 12:21:19;;;;;;;;;;;24.90;46.10;;;;;;4170037;28;19909;-87
2022/07/13 12:23:46;;;;;;;;;;;24.90;46.70;;;;;;4170950;28;19916;-88
2022/07/13 12:26:07;;;;;;;;;;;24.90;46.80;;;;;;4189829;28;19909;-86
2022/07/13 12:28:28;;;;;;;;;;;24.90;46.90;;;;;;4193191;28;19999;-87
2022/07/13 12:30:59;;;;;;;;;;;24.80;46.30;;;;;;4182725;28;19970;-88
2022/07/13 12:33:20;;;;;;;;;;;24.90;47.00;;;;;;4181660;28;19920;-86
2022/07/13 12:35:41;;;;;;;;;;;24.90;47.20;;;;;;4190149;28;19912;-87
2022/07/13 12:38:10;;;;;;;;;;;24.90;46.90;;;;;;4183339;28;19940;-87
2022/07/13 12:40:45;;;;;;;;;;;24.90;47.30;;;;;;4187599;28;19913;-85
2022/07/13 12:43:26;;;;;;;;;;;25.00;47.20;;;;;;4190972;28;20297;-87
2022/07/13 12:45:51;;;;;;;;;;;25.00;47.20;;;;;;4175689;28;20300;-84
2022/07/13 12:48:13;;;;;;;;;;;24.90;47.60;;;;;;4180066;28;19909;-85
2022/07/13 12:50:35;;;;;;;;;;;24.90;47.80;;;;;;4189216;28;19952;-86
2022/07/13 12:52:56;;;;;;;;;;;24.90;47.50;;;;;;4193786;28;19916;-86
2022/07/13 12:55:17;;;;;;;;;;;24.80;47.70;;;;;;4185445;28;19911;-86
2022/07/13 12:57:39;;;;;;;;;;;24.80;47.90;;;;;;4193630;28;19908;-85
2022/07/13 13:00:12;;;;;;;;;;;24.80;48.00;;;;;;4192736;28;20359;-85
2022/07/13 13:02:33;;;;;;;;;;;24.70;48.30;;;;;;4177270;28;20427;-87
2022/07/13 13:04:54;;;;;;;;;;;24.70;48.70;;;;;;4194051;28;19908;-84
2022/07/13 13:07:15;;;;;;;;;;;24.70;48.60;;;;;;4185626;28;19991;-87
2022/07/13 13:09:36;;;;;;;;;;;24.70;48.80;;;;;;4182248;28;20329;-87
2022/07/13 13:11:57;;;;;;;;;;;24.60;48.60;;;;;;4182288;28;20290;-87
2022/07/13 13:14:18;;;;;;;;;;;24.60;48.50;;;;;;4186931;28;19908;-85
2022/07/13 13:16:39;;;;;;;;;;;24.60;48.40;;;;;;4182908;28;20570;-87
2022/07/13 13:19:01;;;;;;;;;;;24.50;48.50;;;;;;4183811;28;20007;-85
2022/07/13 13:21:22;;;;;;;;;;;24.50;48.50;;;;;;4192020;28;19998;-85
2022/07/13 13:23:42;;;;;;;;;;;24.50;48.70;;;;;;4188852;28;19905;-88
2022/07/13 13:26:03;;;;;;;;;;;24.50;48.60;;;;;;4173211;28;20387;-87
2022/07/13 13:28:24;;;;;;;;;;;24.40;48.30;;;;;;4188735;28;19915;-89
2022/07/13 13:30:45;;;;;;;;;;;24.30;48.40;;;;;;4175346;28;20605;-88
2022/07/13 13:33:06;;;;;;;;;;;24.30;48.50;;;;;;4193490;28;19920;-85
2022/07/13 13:35:27;;;;;;;;;;;24.30;48.40;;;;;;4185736;28;19935;-86
2022/07/13 13:37:48;;;;;;;;;;;24.20;49.20;;;;;;4173408;28;19909;-85
2022/07/13 13:40:09;;;;;;;;;;;24.20;48.60;;;;;;4191748;28;19912;-84
2022/07/13 13:42:30;;;;;;;;;;;24.20;48.30;;;;;;4175037;28;19913;-86
2022/07/13 13:44:51;;;;;;;;;;;24.10;48.40;;;;;;4193702;28;19958;-83
2022/07/13 13:47:12;;;;;;;;;;;24.20;48.10;;;;;;4179088;28;20835;-86
2022/07/13 13:49:33;;;;;;;;;;;24.10;47.90;;;;;;4179985;28;20350;-86
2022/07/13 13:51:54;;;;;;;;;;;24.10;47.90;;;;;;4186800;28;19987;-87
2022/07/13 13:54:15;;;;;;;;;;;24.10;47.90;;;;;;4175909;28;19909;-85
2022/07/13 13:56:36;;;;;;;;;;;24.00;47.20;;;;;;4194600;28;19990;-90